sensor_id;sensor_type;location;lat;lon;timestamp;P1;durP1;ratioP1;P2;durP2;ratioP2
22005;SDS011;11167;46.988;15.470;2022-10-16T00:00:54;23.77;;;20.65;;
22005;SDS011;11167;46.988;15.470;2022-10-16T00:02:55;24.98;;;21.20;;
22005;SDS011;11167;46.988;15.470;2022-10-16T00:04:56;21.82;;;19.52;;
22005;SDS011;11167;46.988;15.470;2022-10-16T00:06:58;22.93;;;20.20;;
22005;SDS011;11167;46.988;15.470;2022-10-16T00:08:59;21.05;;;18.32;;
22005;SDS011;11167;46.988;15.470;2022-10-16T00:11:01;21.33;;;18.85;;
22005;SDS011;11167;46.988;15.470;2022-10-16T00:13:05;21.68;;;19.07;;
22005;SDS011;11167;46.988;15.470;2022-10-16T00:15:07;20.35;;;18.17;;
22005;SDS011;11167;46.988;15.470;2022-10-16T00:17:09;21.37;;;19.10;;
22005;SDS011;11167;46.988;15.470;2022-10-16T00:19:10;21.40;;;19.15;;
22005;SDS011;11167;46.988;15.470;2022-10-16T00:21:14;22.85;;;20.12;;
22005;SDS011;11167;46.988;15.470;2022-10-16T00:23:17;21.90;;;19.20;;
22005;SDS011;11167;46.988;15.470;2022-10-16T00:25:18;23.92;;;20.15;;
22005;SDS011;11167;46.988;15.470;2022-10-16T00:27:19;21.85;;;19.45;;
22005;SDS011;11167;46.988;15.470;2022-10-16T00:29:21;21.25;;;19.02;;
22005;SDS011;11167;46.988;15.470;2022-10-16T00:31:22;21.57;;;19.32;;
22005;SDS011;11167;46.988;15.470;2022-10-16T00:33:24;21.87;;;19.52;;
22005;SDS011;11167;46.988;15.470;2022-10-16T00:35:25;21.15;;;18.95;;
22005;SDS011;11167;46.988;15.470;2022-10-16T00:37:26;23.15;;;20.75;;
22005;SDS011;11167;46.988;15.470;2022-10-16T00:39:28;22.40;;;20.05;;
22005;SDS011;11167;46.988;15.470;2022-10-16T00:41:29;22.85;;;20.32;;
22005;SDS011;11167;46.988;15.470;2022-10-16T00:43:41;21.50;;;19.30;;
22005;SDS011;11167;46.988;15.470;2022-10-16T00:45:47;22.65;;;20.35;;
22005;SDS011;11167;46.988;15.470;2022-10-16T00:47:48;20.43;;;18.37;;
22005;SDS011;11167;46.988;15.470;2022-10-16T00:49:53;21.25;;;19.15;;
22005;SDS011;11167;46.988;15.470;2022-10-16T00:51:57;20.45;;;18.35;;
22005;SDS011;11167;46.988;15.470;2022-10-16T00:53:58;20.25;;;18.15;;
22005;SDS011;11167;46.988;15.470;2022-10-16T00:56:00;20.12;;;18.05;;
22005;SDS011;11167;46.988;15.470;2022-10-16T00:58:03;20.72;;;18.57;;
22005;SDS011;11167;46.988;15.470;2022-10-16T01:00:05;20.77;;;18.57;;
22005;SDS011;11167;46.988;15.470;2022-10-16T01:02:10;20.65;;;18.55;;
22005;SDS011;11167;46.988;15.470;2022-10-16T01:04:13;20.45;;;18.35;;
22005;SDS011;11167;46.988;15.470;2022-10-16T01:08:29;20.27;;;18.27;;
22005;SDS011;11167;46.988;15.470;2022-10-16T01:12:57;19.25;;;17.25;;
22005;SDS011;11167;46.988;15.470;2022-10-16T01:17:17;19.67;;;17.12;;
22005;SDS011;11167;46.988;15.470;2022-10-16T01:21:42;19.00;;;17.10;;
22005;SDS011;11167;46.988;15.470;2022-10-16T01:23:49;19.42;;;17.52;;
22005;SDS011;11167;46.988;15.470;2022-10-16T01:26:09;19.98;;;17.82;;
22005;SDS011;11167;46.988;15.470;2022-10-16T01:28:28;21.68;;;17.75;;
22005;SDS011;11167;46.988;15.470;2022-10-16T01:30:31;19.80;;;17.75;;
22005;SDS011;11167;46.988;15.470;2022-10-16T01:32:36;19.37;;;17.48;;
22005;SDS011;11167;46.988;15.470;2022-10-16T01:34:46;19.92;;;17.90;;
22005;SDS011;11167;46.988;15.470;2022-10-16T01:36:57;18.73;;;16.82;;
22005;SDS011;11167;46.988;15.470;2022-10-16T01:39:00;20.00;;;17.90;;
22005;SDS011;11167;46.988;15.470;2022-10-16T01:41:16;20.32;;;18.20;;
22005;SDS011;11167;46.988;15.470;2022-10-16T01:43:25;19.65;;;17.65;;
22005;SDS011;11167;46.988;15.470;2022-10-16T01:45:36;20.00;;;18.00;;
22005;SDS011;11167;46.988;15.470;2022-10-16T01:47:38;21.02;;;18.82;;
22005;SDS011;11167;46.988;15.470;2022-10-16T01:49:40;20.55;;;18.40;;
22005;SDS011;11167;46.988;15.470;2022-10-16T01:51:44;20.08;;;17.98;;
22005;SDS011;11167;46.988;15.470;2022-10-16T01:53:49;21.00;;;18.80;;
22005;SDS011;11167;46.988;15.470;2022-10-16T01:55:53;22.73;;;19.50;;
22005;SDS011;11167;46.988;15.470;2022-10-16T01:57:56;20.92;;;18.82;;
22005;SDS011;11167;46.988;15.470;2022-10-16T02:00:02;22.17;;;19.80;;
22005;SDS011;11167;46.988;15.470;2022-10-16T02:02:06;22.77;;;20.37;;
22005;SDS011;11167;46.988;15.470;2022-10-16T02:04:21;21.80;;;19.60;;
22005;SDS011;11167;46.988;15.470;2022-10-16T02:06:30;22.82;;;19.57;;
22005;SDS011;11167;46.988;15.470;2022-10-16T02:08:31;20.72;;;18.57;;
22005;SDS011;11167;46.988;15.470;2022-10-16T02:10:33;22.02;;;19.73;;
22005;SDS011;11167;46.988;15.470;2022-10-16T02:12:36;21.65;;;19.30;;
22005;SDS011;11167;46.988;15.470;2022-10-16T02:14:40;21.17;;;18.92;;
22005;SDS011;11167;46.988;15.470;2022-10-16T02:16:43;21.70;;;19.40;;
22005;SDS011;11167;46.988;15.470;2022-10-16T02:18:46;21.80;;;19.50;;
22005;SDS011;11167;46.988;15.470;2022-10-16T02:23:04;22.85;;;20.40;;
22005;SDS011;11167;46.988;15.470;2022-10-16T02:29:42;23.87;;;20.90;;
22005;SDS011;11167;46.988;15.470;2022-10-16T02:31:50;23.60;;;21.05;;
22005;SDS011;11167;46.988;15.470;2022-10-16T02:33:53;22.93;;;20.43;;
22005;SDS011;11167;46.988;15.470;2022-10-16T02:35:57;23.20;;;20.65;;
22005;SDS011;11167;46.988;15.470;2022-10-16T02:37:59;22.00;;;19.70;;
22005;SDS011;11167;46.988;15.470;2022-10-16T02:40:00;21.17;;;18.90;;
22005;SDS011;11167;46.988;15.470;2022-10-16T02:42:02;22.75;;;20.27;;
22005;SDS011;11167;46.988;15.470;2022-10-16T02:44:03;22.50;;;19.70;;
22005;SDS011;11167;46.988;15.470;2022-10-16T02:46:04;21.68;;;19.37;;
22005;SDS011;11167;46.988;15.470;2022-10-16T02:48:06;22.35;;;19.95;;
22005;SDS011;11167;46.988;15.470;2022-10-16T02:50:07;22.05;;;19.75;;
22005;SDS011;11167;46.988;15.470;2022-10-16T02:52:08;21.52;;;19.23;;
22005;SDS011;11167;46.988;15.470;2022-10-16T02:54:09;21.60;;;19.30;;
22005;SDS011;11167;46.988;15.470;2022-10-16T02:56:11;21.37;;;19.07;;
22005;SDS011;11167;46.988;15.470;2022-10-16T02:58:12;22.73;;;20.32;;
22005;SDS011;11167;46.988;15.470;2022-10-16T03:00:14;21.50;;;19.30;;
22005;SDS011;11167;46.988;15.470;2022-10-16T03:02:16;21.50;;;19.20;;
22005;SDS011;11167;46.988;15.470;2022-10-16T03:04:17;22.13;;;19.75;;
22005;SDS011;11167;46.988;15.470;2022-10-16T03:06:18;21.75;;;19.45;;
22005;SDS011;11167;46.988;15.470;2022-10-16T03:08:20;22.00;;;19.70;;
22005;SDS011;11167;46.988;15.470;2022-10-16T03:10:23;22.37;;;20.00;;
22005;SDS011;11167;46.988;15.470;2022-10-16T03:12:24;21.73;;;19.42;;
22005;SDS011;11167;46.988;15.470;2022-10-16T03:14:25;22.58;;;20.17;;
22005;SDS011;11167;46.988;15.470;2022-10-16T03:18:48;20.65;;;18.45;;
22005;SDS011;11167;46.988;15.470;2022-10-16T03:20:50;20.32;;;18.23;;
22005;SDS011;11167;46.988;15.470;2022-10-16T03:22:51;20.62;;;18.42;;
22005;SDS011;11167;46.988;15.470;2022-10-16T03:24:52;21.27;;;18.98;;
22005;SDS011;11167;46.988;15.470;2022-10-16T03:26:53;20.80;;;18.62;;
22005;SDS011;11167;46.988;15.470;2022-10-16T03:28:55;20.92;;;18.73;;
22005;SDS011;11167;46.988;15.470;2022-10-16T03:30:56;21.17;;;18.98;;
22005;SDS011;11167;46.988;15.470;2022-10-16T03:32:57;21.75;;;19.45;;
22005;SDS011;11167;46.988;15.470;2022-10-16T03:34:58;20.60;;;18.40;;
22005;SDS011;11167;46.988;15.470;2022-10-16T03:36:59;21.62;;;19.30;;
22005;SDS011;11167;46.988;15.470;2022-10-16T03:39:00;20.27;;;18.02;;
22005;SDS011;11167;46.988;15.470;2022-10-16T03:41:02;20.97;;;18.87;;
22005;SDS011;11167;46.988;15.470;2022-10-16T03:43:04;20.50;;;18.35;;
22005;SDS011;11167;46.988;15.470;2022-10-16T03:45:05;21.33;;;19.17;;
22005;SDS011;11167;46.988;15.470;2022-10-16T03:47:07;20.37;;;18.27;;
22005;SDS011;11167;46.988;15.470;2022-10-16T03:49:08;21.25;;;18.98;;
22005;SDS011;11167;46.988;15.470;2022-10-16T03:51:09;19.70;;;17.70;;
22005;SDS011;11167;46.988;15.470;2022-10-16T03:53:10;19.55;;;17.55;;
22005;SDS011;11167;46.988;15.470;2022-10-16T03:55:11;18.65;;;16.73;;
22005;SDS011;11167;46.988;15.470;2022-10-16T03:57:12;19.05;;;17.15;;
22005;SDS011;11167;46.988;15.470;2022-10-16T03:59:14;18.75;;;16.85;;
22005;SDS011;11167;46.988;15.470;2022-10-16T04:01:15;19.23;;;17.32;;
22005;SDS011;11167;46.988;15.470;2022-10-16T04:03:16;18.65;;;16.75;;
22005;SDS011;11167;46.988;15.470;2022-10-16T04:05:19;18.67;;;16.80;;
22005;SDS011;11167;46.988;15.470;2022-10-16T04:07:20;18.65;;;16.75;;
22005;SDS011;11167;46.988;15.470;2022-10-16T04:09:21;18.10;;;16.23;;
22005;SDS011;11167;46.988;15.470;2022-10-16T04:11:23;18.07;;;16.27;;
22005;SDS011;11167;46.988;15.470;2022-10-16T04:13:24;17.25;;;15.53;;
22005;SDS011;11167;46.988;15.470;2022-10-16T04:15:25;16.23;;;14.63;;
22005;SDS011;11167;46.988;15.470;2022-10-16T04:17:26;17.87;;;16.17;;
22005;SDS011;11167;46.988;15.470;2022-10-16T04:19:27;17.35;;;15.65;;
22005;SDS011;11167;46.988;15.470;2022-10-16T04:21:29;16.93;;;15.30;;
22005;SDS011;11167;46.988;15.470;2022-10-16T04:23:30;17.75;;;15.85;;
22005;SDS011;11167;46.988;15.470;2022-10-16T04:25:31;17.52;;;15.72;;
22005;SDS011;11167;46.988;15.470;2022-10-16T04:27:32;17.23;;;15.63;;
22005;SDS011;11167;46.988;15.470;2022-10-16T04:29:33;16.97;;;15.28;;
22005;SDS011;11167;46.988;15.470;2022-10-16T04:31:34;17.92;;;16.12;;
22005;SDS011;11167;46.988;15.470;2022-10-16T04:33:35;17.62;;;15.93;;
22005;SDS011;11167;46.988;15.470;2022-10-16T04:35:37;17.67;;;15.98;;
22005;SDS011;11167;46.988;15.470;2022-10-16T04:37:38;17.15;;;15.45;;
22005;SDS011;11167;46.988;15.470;2022-10-16T04:39:39;17.98;;;16.12;;
22005;SDS011;11167;46.988;15.470;2022-10-16T04:41:40;16.95;;;15.25;;
22005;SDS011;11167;46.988;15.470;2022-10-16T04:43:41;17.37;;;15.68;;
22005;SDS011;11167;46.988;15.470;2022-10-16T04:45:42;17.45;;;15.70;;
22005;SDS011;11167;46.988;15.470;2022-10-16T04:47:44;18.48;;;16.57;;
22005;SDS011;11167;46.988;15.470;2022-10-16T04:49:45;17.80;;;16.00;;
22005;SDS011;11167;46.988;15.470;2022-10-16T04:51:46;17.25;;;15.55;;
22005;SDS011;11167;46.988;15.470;2022-10-16T04:53:47;17.85;;;15.98;;
22005;SDS011;11167;46.988;15.470;2022-10-16T04:55:49;17.67;;;15.98;;
22005;SDS011;11167;46.988;15.470;2022-10-16T04:57:51;16.62;;;14.93;;
22005;SDS011;11167;46.988;15.470;2022-10-16T04:59:52;17.40;;;15.70;;
22005;SDS011;11167;46.988;15.470;2022-10-16T05:01:53;17.67;;;15.95;;
22005;SDS011;11167;46.988;15.470;2022-10-16T05:03:54;18.70;;;16.80;;
22005;SDS011;11167;46.988;15.470;2022-10-16T05:05:56;18.35;;;16.30;;
22005;SDS011;11167;46.988;15.470;2022-10-16T05:07:57;17.20;;;15.50;;
22005;SDS011;11167;46.988;15.470;2022-10-16T05:09:58;18.80;;;16.93;;
22005;SDS011;11167;46.988;15.470;2022-10-16T05:11:59;18.27;;;16.48;;
22005;SDS011;11167;46.988;15.470;2022-10-16T05:14:00;17.25;;;15.58;;
22005;SDS011;11167;46.988;15.470;2022-10-16T05:16:01;17.65;;;15.95;;
22005;SDS011;11167;46.988;15.470;2022-10-16T05:18:02;16.57;;;14.98;;
22005;SDS011;11167;46.988;15.470;2022-10-16T05:20:04;18.10;;;16.30;;
22005;SDS011;11167;46.988;15.470;2022-10-16T05:22:06;17.00;;;15.35;;
22005;SDS011;11167;46.988;15.470;2022-10-16T05:24:07;17.10;;;15.48;;
22005;SDS011;11167;46.988;15.470;2022-10-16T05:26:09;16.55;;;15.05;;
22005;SDS011;11167;46.988;15.470;2022-10-16T05:28:10;17.27;;;15.50;;
22005;SDS011;11167;46.988;15.470;2022-10-16T05:30:11;17.00;;;15.35;;
22005;SDS011;11167;46.988;15.470;2022-10-16T05:32:13;16.93;;;15.32;;
22005;SDS011;11167;46.988;15.470;2022-10-16T05:34:15;16.52;;;15.00;;
22005;SDS011;11167;46.988;15.470;2022-10-16T05:36:16;15.93;;;14.33;;
22005;SDS011;11167;46.988;15.470;2022-10-16T05:38:18;18.02;;;15.08;;
22005;SDS011;11167;46.988;15.470;2022-10-16T05:40:19;16.87;;;14.95;;
22005;SDS011;11167;46.988;15.470;2022-10-16T05:42:21;17.23;;;15.13;;
22005;SDS011;11167;46.988;15.470;2022-10-16T05:44:22;20.52;;;16.07;;
22005;SDS011;11167;46.988;15.470;2022-10-16T05:46:23;18.07;;;16.00;;
22005;SDS011;11167;46.988;15.470;2022-10-16T05:48:24;17.25;;;15.13;;
22005;SDS011;11167;46.988;15.470;2022-10-16T05:50:26;17.23;;;15.40;;
22005;SDS011;11167;46.988;15.470;2022-10-16T05:52:28;19.25;;;15.55;;
22005;SDS011;11167;46.988;15.470;2022-10-16T05:54:29;16.93;;;15.15;;
22005;SDS011;11167;46.988;15.470;2022-10-16T05:56:30;17.00;;;15.20;;
22005;SDS011;11167;46.988;15.470;2022-10-16T05:58:32;16.25;;;14.65;;
22005;SDS011;11167;46.988;15.470;2022-10-16T06:00:36;16.27;;;14.60;;
22005;SDS011;11167;46.988;15.470;2022-10-16T06:02:37;15.45;;;13.85;;
22005;SDS011;11167;46.988;15.470;2022-10-16T06:04:38;15.60;;;14.13;;
22005;SDS011;11167;46.988;15.470;2022-10-16T06:06:39;15.80;;;14.23;;
22005;SDS011;11167;46.988;15.470;2022-10-16T06:08:41;15.23;;;13.75;;
22005;SDS011;11167;46.988;15.470;2022-10-16T06:10:44;15.15;;;13.65;;
22005;SDS011;11167;46.988;15.470;2022-10-16T06:12:46;15.15;;;13.65;;
22005;SDS011;11167;46.988;15.470;2022-10-16T06:14:47;14.80;;;13.40;;
22005;SDS011;11167;46.988;15.470;2022-10-16T06:16:49;15.95;;;14.45;;
22005;SDS011;11167;46.988;15.470;2022-10-16T06:18:50;16.30;;;14.70;;
22005;SDS011;11167;46.988;15.470;2022-10-16T06:20:52;15.38;;;13.88;;
22005;SDS011;11167;46.988;15.470;2022-10-16T06:22:54;15.00;;;13.58;;
22005;SDS011;11167;46.988;15.470;2022-10-16T06:24:55;15.75;;;14.25;;
22005;SDS011;11167;46.988;15.470;2022-10-16T06:26:56;15.58;;;13.98;;
22005;SDS011;11167;46.988;15.470;2022-10-16T06:28:59;15.13;;;13.72;;
22005;SDS011;11167;46.988;15.470;2022-10-16T06:31:00;15.23;;;13.72;;
22005;SDS011;11167;46.988;15.470;2022-10-16T06:33:02;15.53;;;13.93;;
22005;SDS011;11167;46.988;15.470;2022-10-16T06:35:04;15.03;;;13.58;;
22005;SDS011;11167;46.988;15.470;2022-10-16T06:37:05;15.20;;;13.70;;
22005;SDS011;11167;46.988;15.470;2022-10-16T06:39:06;14.30;;;13.00;;
22005;SDS011;11167;46.988;15.470;2022-10-16T06:41:09;14.23;;;12.90;;
22005;SDS011;11167;46.988;15.470;2022-10-16T06:43:14;14.13;;;12.73;;
22005;SDS011;11167;46.988;15.470;2022-10-16T06:45:15;13.70;;;12.30;;
22005;SDS011;11167;46.988;15.470;2022-10-16T06:47:16;13.58;;;12.28;;
22005;SDS011;11167;46.988;15.470;2022-10-16T06:49:20;13.83;;;12.53;;
22005;SDS011;11167;46.988;15.470;2022-10-16T06:51:24;13.90;;;12.60;;
22005;SDS011;11167;46.988;15.470;2022-10-16T06:53:26;12.58;;;11.38;;
22005;SDS011;11167;46.988;15.470;2022-10-16T06:55:29;12.93;;;11.73;;
22005;SDS011;11167;46.988;15.470;2022-10-16T06:57:30;13.20;;;11.90;;
22005;SDS011;11167;46.988;15.470;2022-10-16T06:59:31;13.22;;;12.03;;
22005;SDS011;11167;46.988;15.470;2022-10-16T07:01:33;13.25;;;11.95;;
22005;SDS011;11167;46.988;15.470;2022-10-16T07:03:38;12.60;;;11.43;;
22005;SDS011;11167;46.988;15.470;2022-10-16T07:05:41;13.60;;;12.30;;
22005;SDS011;11167;46.988;15.470;2022-10-16T07:07:43;14.30;;;12.60;;
22005;SDS011;11167;46.988;15.470;2022-10-16T07:09:44;14.35;;;12.88;;
22005;SDS011;11167;46.988;15.470;2022-10-16T07:11:45;15.80;;;13.28;;
22005;SDS011;11167;46.988;15.470;2022-10-16T07:13:47;14.63;;;13.03;;
22005;SDS011;11167;46.988;15.470;2022-10-16T07:15:49;15.40;;;13.90;;
22005;SDS011;11167;46.988;15.470;2022-10-16T07:17:50;17.45;;;13.85;;
22005;SDS011;11167;46.988;15.470;2022-10-16T07:19:51;16.12;;;14.45;;
22005;SDS011;11167;46.988;15.470;2022-10-16T07:21:53;16.73;;;14.95;;
22005;SDS011;11167;46.988;15.470;2022-10-16T07:23:55;16.52;;;14.80;;
22005;SDS011;11167;46.988;15.470;2022-10-16T07:25:58;15.83;;;14.23;;
22005;SDS011;11167;46.988;15.470;2022-10-16T07:27:59;16.45;;;14.75;;
22005;SDS011;11167;46.988;15.470;2022-10-16T07:30:00;15.55;;;13.95;;
22005;SDS011;11167;46.988;15.470;2022-10-16T07:32:02;15.83;;;14.23;;
22005;SDS011;11167;46.988;15.470;2022-10-16T07:34:03;16.17;;;14.47;;
22005;SDS011;11167;46.988;15.470;2022-10-16T07:36:04;16.37;;;14.23;;
22005;SDS011;11167;46.988;15.470;2022-10-16T07:38:06;15.68;;;14.18;;
22005;SDS011;11167;46.988;15.470;2022-10-16T07:40:08;14.98;;;13.48;;
22005;SDS011;11167;46.988;15.470;2022-10-16T07:42:09;15.78;;;14.18;;
22005;SDS011;11167;46.988;15.470;2022-10-16T07:44:10;15.58;;;14.07;;
22005;SDS011;11167;46.988;15.470;2022-10-16T07:46:12;15.18;;;13.68;;
22005;SDS011;11167;46.988;15.470;2022-10-16T07:48:13;15.28;;;13.83;;
22005;SDS011;11167;46.988;15.470;2022-10-16T07:50:14;15.28;;;13.78;;
22005;SDS011;11167;46.988;15.470;2022-10-16T07:52:15;15.35;;;13.85;;
22005;SDS011;11167;46.988;15.470;2022-10-16T07:54:16;15.65;;;14.15;;
22005;SDS011;11167;46.988;15.470;2022-10-16T07:56:18;15.55;;;13.95;;
22005;SDS011;11167;46.988;15.470;2022-10-16T07:58:20;16.27;;;14.68;;
22005;SDS011;11167;46.988;15.470;2022-10-16T08:00:21;15.38;;;13.83;;
22005;SDS011;11167;46.988;15.470;2022-10-16T08:02:22;15.38;;;13.88;;
22005;SDS011;11167;46.988;15.470;2022-10-16T08:04:23;15.03;;;13.53;;
22005;SDS011;11167;46.988;15.470;2022-10-16T08:06:24;15.72;;;14.23;;
22005;SDS011;11167;46.988;15.470;2022-10-16T08:08:25;14.93;;;13.48;;
22005;SDS011;11167;46.988;15.470;2022-10-16T08:10:27;14.70;;;13.18;;
22005;SDS011;11167;46.988;15.470;2022-10-16T08:12:29;15.32;;;13.83;;
22005;SDS011;11167;46.988;15.470;2022-10-16T08:14:30;15.08;;;13.58;;
22005;SDS011;11167;46.988;15.470;2022-10-16T08:16:31;14.98;;;13.48;;
22005;SDS011;11167;46.988;15.470;2022-10-16T08:18:33;14.60;;;13.20;;
22005;SDS011;11167;46.988;15.470;2022-10-16T08:20:36;14.58;;;13.20;;
22005;SDS011;11167;46.988;15.470;2022-10-16T08:22:37;14.73;;;13.22;;
22005;SDS011;11167;46.988;15.470;2022-10-16T08:24:38;14.07;;;12.68;;
22005;SDS011;11167;46.988;15.470;2022-10-16T08:26:40;13.78;;;12.47;;
22005;SDS011;11167;46.988;15.470;2022-10-16T08:28:41;14.87;;;13.38;;
22005;SDS011;11167;46.988;15.470;2022-10-16T08:30:43;13.75;;;12.45;;
22005;SDS011;11167;46.988;15.470;2022-10-16T08:32:44;14.83;;;13.35;;
22005;SDS011;11167;46.988;15.470;2022-10-16T08:34:45;13.30;;;12.03;;
22005;SDS011;11167;46.988;15.470;2022-10-16T08:36:46;14.25;;;12.95;;
22005;SDS011;11167;46.988;15.470;2022-10-16T08:38:48;14.90;;;13.40;;
22005;SDS011;11167;46.988;15.470;2022-10-16T08:40:50;14.35;;;12.95;;
22005;SDS011;11167;46.988;15.470;2022-10-16T08:45:28;15.50;;;13.90;;
22005;SDS011;11167;46.988;15.470;2022-10-16T08:49:39;14.53;;;13.05;;
22005;SDS011;11167;46.988;15.470;2022-10-16T08:51:42;14.65;;;13.15;;
22005;SDS011;11167;46.988;15.470;2022-10-16T08:55:52;14.10;;;12.70;;
22005;SDS011;11167;46.988;15.470;2022-10-16T08:57:54;14.70;;;13.20;;
22005;SDS011;11167;46.988;15.470;2022-10-16T08:59:57;14.83;;;13.32;;
22005;SDS011;11167;46.988;15.470;2022-10-16T09:02:00;14.95;;;13.38;;
22005;SDS011;11167;46.988;15.470;2022-10-16T09:06:26;14.20;;;12.80;;
22005;SDS011;11167;46.988;15.470;2022-10-16T09:11:05;14.25;;;12.85;;
22005;SDS011;11167;46.988;15.470;2022-10-16T09:17:35;14.87;;;13.38;;
22005;SDS011;11167;46.988;15.470;2022-10-16T09:19:59;14.75;;;13.00;;
22005;SDS011;11167;46.988;15.470;2022-10-16T09:22:15;13.80;;;12.37;;
22005;SDS011;11167;46.988;15.470;2022-10-16T09:24:19;14.90;;;13.40;;
22005;SDS011;11167;46.988;15.470;2022-10-16T09:26:22;14.55;;;13.00;;
22005;SDS011;11167;46.988;15.470;2022-10-16T09:28:23;14.38;;;12.88;;
22005;SDS011;11167;46.988;15.470;2022-10-16T09:30:26;14.60;;;13.08;;
22005;SDS011;11167;46.988;15.470;2022-10-16T09:32:29;15.20;;;13.60;;
22005;SDS011;11167;46.988;15.470;2022-10-16T09:34:34;14.78;;;13.20;;
22005;SDS011;11167;46.988;15.470;2022-10-16T09:36:41;15.93;;;14.30;;
22005;SDS011;11167;46.988;15.470;2022-10-16T09:38:45;15.00;;;13.40;;
22005;SDS011;11167;46.988;15.470;2022-10-16T09:40:47;15.10;;;13.32;;
22005;SDS011;11167;46.988;15.470;2022-10-16T09:42:49;15.88;;;13.53;;
22005;SDS011;11167;46.988;15.470;2022-10-16T09:44:54;14.87;;;13.28;;
22005;SDS011;11167;46.988;15.470;2022-10-16T09:47:15;14.75;;;13.25;;
22005;SDS011;11167;46.988;15.470;2022-10-16T09:49:25;16.40;;;13.60;;
22005;SDS011;11167;46.988;15.470;2022-10-16T09:51:28;15.58;;;13.95;;
22005;SDS011;11167;46.988;15.470;2022-10-16T09:53:41;15.38;;;13.15;;
22005;SDS011;11167;46.988;15.470;2022-10-16T09:55:48;16.55;;;14.30;;
22005;SDS011;11167;46.988;15.470;2022-10-16T09:57:53;14.80;;;12.82;;
22005;SDS011;11167;46.988;15.470;2022-10-16T09:59:56;14.85;;;13.18;;
22005;SDS011;11167;46.988;15.470;2022-10-16T10:02:01;14.85;;;13.35;;
22005;SDS011;11167;46.988;15.470;2022-10-16T10:04:06;14.40;;;12.90;;
22005;SDS011;11167;46.988;15.470;2022-10-16T10:06:18;15.00;;;13.40;;
22005;SDS011;11167;46.988;15.470;2022-10-16T10:08:25;15.00;;;13.22;;
22005;SDS011;11167;46.988;15.470;2022-10-16T10:10:27;15.45;;;13.85;;
22005;SDS011;11167;46.988;15.470;2022-10-16T10:12:30;16.82;;;14.10;;
22005;SDS011;11167;46.988;15.470;2022-10-16T10:16:52;15.65;;;13.78;;
22005;SDS011;11167;46.988;15.470;2022-10-16T10:18:59;15.20;;;13.70;;
22005;SDS011;11167;46.988;15.470;2022-10-16T10:21:01;15.53;;;13.93;;
22005;SDS011;11167;46.988;15.470;2022-10-16T10:24:08;16.75;;;14.58;;
22005;SDS011;11167;46.988;15.470;2022-10-16T10:30:23;16.05;;;14.35;;
22005;SDS011;11167;46.988;15.470;2022-10-16T10:35:02;15.48;;;13.55;;
22005;SDS011;11167;46.988;15.470;2022-10-16T10:39:40;15.08;;;13.35;;
22005;SDS011;11167;46.988;15.470;2022-10-16T10:41:53;15.40;;;13.80;;
22005;SDS011;11167;46.988;15.470;2022-10-16T10:47:21;16.55;;;14.43;;
22005;SDS011;11167;46.988;15.470;2022-10-16T10:48:59;15.58;;;13.88;;
22005;SDS011;11167;46.988;15.470;2022-10-16T10:51:05;15.55;;;13.83;;
22005;SDS011;11167;46.988;15.470;2022-10-16T10:58:07;15.78;;;14.13;;
22005;SDS011;11167;46.988;15.470;2022-10-16T11:02:36;15.38;;;13.78;;
22005;SDS011;11167;46.988;15.470;2022-10-16T11:04:42;15.40;;;13.80;;
22005;SDS011;11167;46.988;15.470;2022-10-16T11:06:45;15.90;;;14.20;;
22005;SDS011;11167;46.988;15.470;2022-10-16T11:08:49;15.40;;;13.88;;
22005;SDS011;11167;46.988;15.470;2022-10-16T11:10:53;15.98;;;14.28;;
22005;SDS011;11167;46.988;15.470;2022-10-16T11:15:31;16.05;;;14.35;;
22005;SDS011;11167;46.988;15.470;2022-10-16T11:17:48;14.45;;;12.95;;
22005;SDS011;11167;46.988;15.470;2022-10-16T11:19:54;14.58;;;13.03;;
22005;SDS011;11167;46.988;15.470;2022-10-16T11:22:11;14.98;;;13.38;;
22005;SDS011;11167;46.988;15.470;2022-10-16T11:24:16;14.28;;;12.78;;
22005;SDS011;11167;46.988;15.470;2022-10-16T11:26:38;14.38;;;12.88;;
22005;SDS011;11167;46.988;15.470;2022-10-16T11:28:51;14.63;;;13.00;;
22005;SDS011;11167;46.988;15.470;2022-10-16T11:30:59;15.08;;;13.50;;
22005;SDS011;11167;46.988;15.470;2022-10-16T11:35:23;13.65;;;12.25;;
22005;SDS011;11167;46.988;15.470;2022-10-16T11:37:38;14.20;;;12.70;;
22005;SDS011;11167;46.988;15.470;2022-10-16T11:39:42;14.98;;;13.38;;
22005;SDS011;11167;46.988;15.470;2022-10-16T11:42:48;13.90;;;12.50;;
22005;SDS011;11167;46.988;15.470;2022-10-16T11:46:27;13.90;;;12.43;;
22005;SDS011;11167;46.988;15.470;2022-10-16T11:48:45;14.55;;;13.05;;
22005;SDS011;11167;46.988;15.470;2022-10-16T11:50:48;14.05;;;12.65;;
22005;SDS011;11167;46.988;15.470;2022-10-16T11:55:27;14.45;;;13.00;;
22005;SDS011;11167;46.988;15.470;2022-10-16T11:57:27;14.60;;;13.03;;
22005;SDS011;11167;46.988;15.470;2022-10-16T11:59:46;13.72;;;12.33;;
22005;SDS011;11167;46.988;15.470;2022-10-16T12:01:50;13.88;;;12.55;;
22005;SDS011;11167;46.988;15.470;2022-10-16T12:04:02;14.40;;;12.90;;
22005;SDS011;11167;46.988;15.470;2022-10-16T12:06:25;14.80;;;13.38;;
22005;SDS011;11167;46.988;15.470;2022-10-16T12:08:34;14.50;;;13.00;;
22005;SDS011;11167;46.988;15.470;2022-10-16T12:10:36;14.63;;;13.18;;
22005;SDS011;11167;46.988;15.470;2022-10-16T12:12:39;14.70;;;13.20;;
22005;SDS011;11167;46.988;15.470;2022-10-16T12:14:42;14.90;;;13.40;;
22005;SDS011;11167;46.988;15.470;2022-10-16T12:16:56;14.58;;;13.08;;
22005;SDS011;11167;46.988;15.470;2022-10-16T12:19:18;14.85;;;13.35;;
22005;SDS011;11167;46.988;15.470;2022-10-16T12:21:17;14.73;;;13.20;;
22005;SDS011;11167;46.988;15.470;2022-10-16T12:23:20;14.93;;;13.43;;
22005;SDS011;11167;46.988;15.470;2022-10-16T12:25:30;14.60;;;13.20;;
22005;SDS011;11167;46.988;15.470;2022-10-16T12:27:33;15.08;;;13.58;;
22005;SDS011;11167;46.988;15.470;2022-10-16T12:29:37;14.73;;;13.22;;
22005;SDS011;11167;46.988;15.470;2022-10-16T12:31:44;14.50;;;13.10;;
22005;SDS011;11167;46.988;15.470;2022-10-16T12:34:02;14.73;;;13.28;;
22005;SDS011;11167;46.988;15.470;2022-10-16T12:36:32;15.40;;;13.70;;
22005;SDS011;11167;46.988;15.470;2022-10-16T12:38:44;15.25;;;13.72;;
22005;SDS011;11167;46.988;15.470;2022-10-16T12:43:10;14.28;;;12.88;;
22005;SDS011;11167;46.988;15.470;2022-10-16T12:49:38;14.60;;;13.10;;
22005;SDS011;11167;46.988;15.470;2022-10-16T12:51:42;14.75;;;13.32;;
22005;SDS011;11167;46.988;15.470;2022-10-16T12:53:44;15.23;;;13.72;;
22005;SDS011;11167;46.988;15.470;2022-10-16T12:58:09;16.95;;;14.10;;
22005;SDS011;11167;46.988;15.470;2022-10-16T13:00:24;15.58;;;13.98;;
22005;SDS011;11167;46.988;15.470;2022-10-16T13:05:16;15.58;;;14.07;;
22005;SDS011;11167;46.988;15.470;2022-10-16T13:17:20;15.10;;;13.60;;
22005;SDS011;11167;46.988;15.470;2022-10-16T13:19:58;14.45;;;13.05;;
22005;SDS011;11167;46.988;15.470;2022-10-16T13:24:11;14.95;;;13.55;;